createdAt,value
2023-04-15T00:00:29.000Z,66.65
2023-04-15T00:01:32.000Z,66.08
2023-04-15T00:02:30.000Z,67.03
2023-04-15T00:03:29.000Z,66.62
2023-04-15T00:04:30.000Z,67.23
2023-04-15T00:05:30.000Z,66.63
2023-04-15T00:06:30.000Z,66.92
2023-04-15T00:07:31.000Z,66.44
2023-04-15T00:08:29.000Z,66.93
2023-04-15T00:09:29.000Z,67.30
2023-04-15T00:10:29.000Z,67.89
2023-04-15T00:11:30.000Z,67.05
2023-04-15T00:12:30.000Z,68.24
2023-04-15T00:13:33.000Z,67.90
2023-04-15T00:14:29.000Z,68.57
2023-04-15T00:15:29.000Z,67.64
2023-04-15T00:16:29.000Z,68.34
2023-04-15T00:17:30.000Z,69.22
2023-04-15T00:18:31.000Z,69.29
2023-04-15T00:19:30.000Z,69.34
2023-04-15T00:20:29.000Z,69.03
2023-04-15T00:21:30.000Z,69.02
2023-04-15T00:22:29.000Z,69.36
2023-04-15T00:23:30.000Z,68.70
2023-04-15T00:24:30.000Z,67.80
2023-04-15T00:25:30.000Z,68.22
2023-04-15T00:26:29.000Z,67.77
2023-04-15T00:27:29.000Z,67.64
2023-04-15T00:28:30.000Z,67.37
2023-04-15T00:29:30.000Z,67.26
2023-04-15T00:30:30.000Z,66.98
2023-04-15T00:31:30.000Z,66.78
2023-04-15T00:32:30.000Z,67.26
2023-04-15T00:33:29.000Z,66.79
2023-04-15T00:34:29.000Z,66.68
2023-04-15T00:35:31.000Z,66.33
2023-04-15T00:36:30.000Z,66.46
2023-04-15T00:37:29.000Z,66.34
2023-04-15T00:38:29.000Z,66.27
2023-04-15T00:39:29.000Z,66.63
2023-04-15T00:40:29.000Z,66.96
2023-04-15T00:41:30.000Z,66.18
2023-04-15T00:42:30.000Z,66.22
2023-04-15T00:43:29.000Z,66.64
2023-04-15T00:44:30.000Z,67.46
2023-04-15T00:45:29.000Z,67.46
2023-04-15T00:46:31.000Z,68.08
2023-04-15T00:47:31.000Z,68.54
2023-04-15T00:48:30.000Z,68.64
2023-04-15T00:49:29.000Z,68.39
2023-04-15T00:50:29.000Z,68.44
2023-04-15T00:51:33.000Z,69.04
2023-04-15T00:52:30.000Z,69.76
2023-04-15T00:53:29.000Z,70.17
2023-04-15T00:54:29.000Z,70.77
2023-04-15T00:55:29.000Z,71.03
2023-04-15T00:56:30.000Z,70.85
2023-04-15T00:57:29.000Z,70.71
2023-04-15T00:58:29.000Z,70.65
2023-04-15T00:59:30.000Z,70.72
2023-04-15T01:00:30.000Z,70.33
2023-04-15T01:01:30.000Z,70.48
2023-04-15T01:02:30.000Z,71.04
2023-04-15T01:03:29.000Z,71.16
2023-04-15T01:04:29.000Z,70.52
2023-04-15T01:05:30.000Z,70.10
2023-04-15T01:06:29.000Z,69.87
2023-04-15T01:07:29.000Z,69.50
2023-04-15T01:08:29.000Z,69.29
2023-04-15T01:09:29.000Z,69.65
2023-04-15T01:10:30.000Z,69.55
2023-04-15T01:11:30.000Z,69.72
2023-04-15T01:12:31.000Z,69.65
2023-04-15T01:13:32.000Z,69.58
2023-04-15T01:14:30.000Z,70.14
2023-04-15T01:15:29.000Z,69.58
2023-04-15T01:16:29.000Z,69.46
2023-04-15T01:17:29.000Z,69.42
2023-04-15T01:18:30.000Z,69.80
2023-04-15T01:19:29.000Z,69.42
2023-04-15T01:20:29.000Z,69.16
2023-04-15T01:21:29.000Z,69.59
2023-04-15T01:22:29.000Z,69.33
2023-04-15T01:23:30.000Z,69.72
2023-04-15T01:24:30.000Z,69.58
2023-04-15T01:25:33.000Z,70.48
2023-04-15T01:26:29.000Z,70.57
2023-04-15T01:27:30.000Z,70.73
2023-04-15T01:28:30.000Z,70.44
2023-04-15T01:29:31.000Z,70.56
2023-04-15T01:30:32.000Z,70.62
2023-04-15T01:31:29.000Z,71.40
2023-04-15T01:32:29.000Z,71.97
2023-04-15T01:33:29.000Z,71.97
2023-04-15T01:34:28.000Z,72.19
2023-04-15T01:35:29.000Z,72.15
2023-04-15T01:36:28.000Z,72.07
2023-04-15T01:37:29.000Z,72.59
2023-04-15T01:38:29.000Z,72.74
2023-04-15T01:39:29.000Z,72.58
2023-04-15T01:40:29.000Z,72.61
2023-04-15T01:41:29.000Z,73.25
2023-04-15T01:42:29.000Z,73.12
2023-04-15T01:43:29.000Z,72.99
2023-04-15T01:44:29.000Z,73.00
2023-04-15T01:45:29.000Z,72.71
2023-04-15T01:46:29.000Z,72.98
2023-04-15T01:47:28.000Z,72.45
2023-04-15T01:48:29.000Z,72.23
2023-04-15T01:49:29.000Z,72.34
2023-04-15T01:50:29.000Z,72.50
2023-04-15T01:51:29.000Z,72.34
2023-04-15T01:52:29.000Z,72.30
2023-04-15T01:53:28.000Z,72.22
2023-04-15T01:54:29.000Z,72.36
2023-04-15T01:55:29.000Z,72.19
2023-04-15T01:56:28.000Z,73.06
2023-04-15T01:57:29.000Z,73.45
2023-04-15T01:58:29.000Z,73.45
2023-04-15T01:59:29.000Z,73.80
2023-04-15T02:00:30.000Z,73.83
2023-04-15T02:01:28.000Z,73.53
2023-04-15T02:02:29.000Z,73.11
2023-04-15T02:03:29.000Z,72.89
2023-04-15T02:04:29.000Z,73.29
2023-04-15T02:05:28.000Z,73.18
2023-04-15T02:06:28.000Z,73.07
2023-04-15T02:07:30.000Z,72.58
2023-04-15T02:08:28.000Z,72.57
2023-04-15T02:09:29.000Z,72.93
2023-04-15T02:10:28.000Z,72.54
2023-04-15T02:11:28.000Z,72.76
2023-04-15T02:12:28.000Z,72.43
2023-04-15T02:13:29.000Z,72.13
2023-04-15T02:14:29.000Z,72.22
2023-04-15T02:15:29.000Z,71.74
2023-04-15T02:16:29.000Z,71.67
2023-04-15T02:17:29.000Z,71.60
2023-04-15T02:18:28.000Z,71.70
2023-04-15T02:19:29.000Z,72.14
2023-04-15T02:20:30.000Z,72.01
2023-04-15T02:21:29.000Z,71.92
2023-04-15T02:22:29.000Z,72.47
2023-04-15T02:23:28.000Z,71.84
2023-04-15T02:24:29.000Z,71.55
2023-04-15T02:25:28.000Z,71.66
2023-04-15T02:26:31.000Z,72.25
2023-04-15T02:27:29.000Z,71.75
2023-04-15T02:28:29.000Z,71.22
2023-04-15T02:29:30.000Z,72.04
2023-04-15T02:30:28.000Z,72.20
2023-04-15T02:31:29.000Z,72.61
2023-04-15T02:32:29.000Z,73.13
2023-04-15T02:33:29.000Z,73.57
2023-04-15T02:34:30.000Z,73.60
2023-04-15T02:35:29.000Z,73.61
2023-04-15T02:36:30.000Z,73.86
2023-04-15T02:37:31.000Z,73.82
2023-04-15T02:38:30.000Z,73.68
2023-04-15T02:39:29.000Z,73.61
2023-04-15T02:40:29.000Z,73.56
2023-04-15T02:41:29.000Z,73.44
2023-04-15T02:42:30.000Z,73.51
2023-04-15T02:43:29.000Z,73.39
2023-04-15T02:44:31.000Z,73.64
2023-04-15T02:45:29.000Z,73.32
2023-04-15T02:46:29.000Z,73.53
2023-04-15T02:47:29.000Z,73.57
2023-04-15T02:48:30.000Z,74.11
2023-04-15T02:49:30.000Z,74.06
2023-04-15T02:50:30.000Z,74.57
2023-04-15T02:51:30.000Z,74.06
2023-04-15T02:52:29.000Z,73.57
2023-04-15T02:53:29.000Z,73.34
2023-04-15T02:54:29.000Z,72.74
2023-04-15T02:55:29.000Z,73.02
2023-04-15T02:56:29.000Z,73.32
2023-04-15T02:57:30.000Z,73.34
2023-04-15T02:58:29.000Z,73.90
2023-04-15T02:59:29.000Z,73.29
2023-04-15T03:00:29.000Z,73.53
2023-04-15T03:01:29.000Z,73.59
2023-04-15T03:02:33.000Z,73.05
2023-04-15T03:03:29.000Z,73.17
2023-04-15T03:04:29.000Z,72.63
2023-04-15T03:05:29.000Z,72.70
2023-04-15T03:06:30.000Z,72.54
2023-04-15T03:07:30.000Z,73.24
2023-04-15T03:08:29.000Z,73.57
2023-04-15T03:09:29.000Z,73.71
2023-04-15T03:10:29.000Z,73.12
2023-04-15T03:11:31.000Z,73.05
2023-04-15T03:12:29.000Z,72.50
2023-04-15T03:13:29.000Z,72.69
2023-04-15T03:14:30.000Z,72.78
2023-04-15T03:15:29.000Z,72.71
2023-04-15T03:16:29.000Z,72.76
2023-04-15T03:17:30.000Z,73.19
2023-04-15T03:18:29.000Z,72.81
2023-04-15T03:19:29.000Z,73.24
2023-04-15T03:20:29.000Z,73.45
2023-04-15T03:21:29.000Z,73.54
2023-04-15T03:22:30.000Z,73.62
2023-04-15T03:23:30.000Z,73.99
2023-04-15T03:24:29.000Z,74.32
2023-04-15T03:25:29.000Z,74.18
2023-04-15T03:26:30.000Z,74.54
2023-04-15T03:27:29.000Z,74.15
2023-04-15T03:28:30.000Z,73.88
2023-04-15T03:29:29.000Z,73.73
2023-04-15T03:30:29.000Z,73.49
2023-04-15T03:31:29.000Z,73.65
2023-04-15T03:32:29.000Z,73.87
2023-04-15T03:33:29.000Z,73.99
2023-04-15T03:34:29.000Z,73.80
2023-04-15T03:35:29.000Z,74.42
2023-04-15T03:36:30.000Z,73.72
2023-04-15T03:37:28.000Z,74.03
2023-04-15T03:38:28.000Z,73.96
2023-04-15T03:39:29.000Z,73.72
2023-04-15T03:40:28.000Z,73.65
2023-04-15T03:41:29.000Z,73.55
2023-04-15T03:42:28.000Z,73.59
2023-04-15T03:43:28.000Z,73.45
2023-04-15T03:44:28.000Z,73.60
2023-04-15T03:45:28.000Z,73.75
2023-04-15T03:46:28.000Z,73.79
2023-04-15T03:47:28.000Z,73.36
2023-04-15T03:48:28.000Z,73.92
2023-04-15T03:49:28.000Z,73.97
2023-04-15T03:50:28.000Z,74.75
2023-04-15T03:51:29.000Z,74.90
2023-04-15T03:52:28.000Z,74.40
2023-04-15T03:53:28.000Z,74.51
2023-04-15T03:54:28.000Z,74.30
2023-04-15T03:55:28.000Z,74.32
2023-04-15T03:56:28.000Z,73.98
2023-04-15T03:57:28.000Z,73.69
2023-04-15T03:58:29.000Z,73.45
2023-04-15T03:59:28.000Z,73.50
2023-04-15T04:00:28.000Z,73.42
2023-04-15T04:01:28.000Z,74.39
2023-04-15T04:02:28.000Z,74.19
2023-04-15T04:03:29.000Z,74.34
2023-04-15T04:04:28.000Z,74.43
2023-04-15T04:05:29.000Z,74.30
2023-04-15T04:06:29.000Z,74.05
2023-04-15T04:07:28.000Z,74.27
2023-04-15T04:08:28.000Z,73.82
2023-04-15T04:09:28.000Z,73.39
2023-04-15T04:10:28.000Z,73.62
2023-04-15T04:11:28.000Z,73.51
2023-04-15T04:12:28.000Z,73.47
2023-04-15T04:13:28.000Z,73.14
2023-04-15T04:14:29.000Z,73.15
2023-04-15T04:15:28.000Z,73.43
2023-04-15T04:16:28.000Z,73.63
2023-04-15T04:17:28.000Z,74.16
2023-04-15T04:18:30.000Z,73.52
2023-04-15T04:19:28.000Z,73.62
2023-04-15T04:20:30.000Z,73.85
2023-04-15T04:21:29.000Z,74.31
2023-04-15T04:22:28.000Z,74.82
2023-04-15T04:23:28.000Z,75.17
2023-04-15T04:24:29.000Z,75.25
2023-04-15T04:25:28.000Z,75.46
2023-04-15T04:26:28.000Z,74.57
2023-04-15T04:27:28.000Z,74.92
2023-04-15T04:28:28.000Z,74.48
2023-04-15T04:29:28.000Z,74.93
2023-04-15T04:30:28.000Z,75.46
2023-04-15T04:31:28.000Z,75.44
2023-04-15T04:32:28.000Z,75.62
2023-04-15T04:33:28.000Z,75.16
2023-04-15T04:34:28.000Z,75.65
2023-04-15T04:35:28.000Z,74.77
2023-04-15T04:36:29.000Z,74.95
2023-04-15T04:37:28.000Z,75.30
2023-04-15T04:38:28.000Z,74.71
2023-04-15T04:39:28.000Z,76.10
2023-04-15T04:40:28.000Z,76.85
2023-04-15T04:41:28.000Z,76.99
2023-04-15T04:42:29.000Z,76.03
2023-04-15T04:43:28.000Z,75.67
2023-04-15T04:44:28.000Z,75.34
2023-04-15T04:45:28.000Z,76.46
2023-04-15T04:46:28.000Z,77.05
2023-04-15T04:47:28.000Z,77.44
2023-04-15T04:48:28.000Z,76.75
2023-04-15T04:49:28.000Z,75.90
2023-04-15T04:50:28.000Z,75.61
2023-04-15T04:51:29.000Z,75.87
2023-04-15T04:52:29.000Z,75.76
2023-04-15T04:53:29.000Z,76.10
2023-04-15T04:54:29.000Z,76.30
2023-04-15T04:55:30.000Z,76.43
2023-04-15T04:56:28.000Z,76.60
2023-04-15T04:57:28.000Z,76.81
2023-04-15T04:58:28.000Z,77.09
2023-04-15T04:59:28.000Z,76.85
2023-04-15T05:00:28.000Z,76.07
2023-04-15T05:01:28.000Z,75.72
2023-04-15T05:02:29.000Z,75.69
2023-04-15T05:03:28.000Z,76.33
2023-04-15T05:04:30.000Z,76.47
2023-04-15T05:05:28.000Z,76.16
2023-04-15T05:06:29.000Z,76.83
2023-04-15T05:07:29.000Z,76.33
2023-04-15T05:08:29.000Z,76.58
2023-04-15T05:09:31.000Z,76.74
2023-04-15T05:10:29.000Z,76.66
2023-04-15T05:11:29.000Z,77.07
2023-04-15T05:12:29.000Z,77.16
2023-04-15T05:13:29.000Z,77.14
2023-04-15T05:14:29.000Z,77.54
2023-04-15T05:15:29.000Z,78.48
2023-04-15T05:16:29.000Z,78.38
2023-04-15T05:17:32.000Z,78.14
2023-04-15T05:18:29.000Z,78.38
2023-04-15T05:19:29.000Z,78.86
2023-04-15T05:20:29.000Z,78.89
2023-04-15T05:21:30.000Z,79.36
2023-04-15T05:22:29.000Z,78.08
2023-04-15T05:23:29.000Z,78.00
2023-04-15T05:24:29.000Z,78.23
2023-04-15T05:25:29.000Z,78.11
2023-04-15T05:26:29.000Z,77.98
2023-04-15T05:27:29.000Z,78.25
2023-04-15T05:28:29.000Z,78.03
2023-04-15T05:29:29.000Z,77.85
2023-04-15T05:30:29.000Z,77.85
2023-04-15T05:31:29.000Z,77.59
2023-04-15T05:32:29.000Z,77.63
2023-04-15T05:33:29.000Z,77.79
2023-04-15T05:34:29.000Z,77.97
2023-04-15T05:35:29.000Z,78.11
2023-04-15T05:36:30.000Z,78.15
2023-04-15T05:37:29.000Z,78.33
2023-04-15T05:38:29.000Z,78.46
2023-04-15T05:39:31.000Z,78.38
2023-04-15T05:40:29.000Z,78.47
2023-04-15T05:41:29.000Z,78.45
2023-04-15T05:42:29.000Z,78.44
2023-04-15T05:43:29.000Z,78.30
2023-04-15T05:44:28.000Z,78.12
2023-04-15T05:45:28.000Z,78.13
2023-04-15T05:46:28.000Z,78.60
2023-04-15T05:47:28.000Z,78.62
2023-04-15T05:48:29.000Z,78.93
2023-04-15T05:49:29.000Z,78.68
2023-04-15T05:50:29.000Z,78.50
2023-04-15T05:51:29.000Z,78.70
2023-04-15T05:52:30.000Z,78.67
2023-04-15T05:53:28.000Z,78.89
2023-04-15T05:54:29.000Z,78.77
2023-04-15T05:55:29.000Z,78.92
2023-04-15T05:56:29.000Z,79.04
2023-04-15T05:57:28.000Z,78.98
2023-04-15T05:58:29.000Z,78.69
2023-04-15T05:59:29.000Z,78.90
2023-04-15T06:00:29.000Z,79.47
2023-04-15T06:01:29.000Z,79.60
2023-04-15T06:02:29.000Z,79.84
2023-04-15T06:03:29.000Z,80.15
2023-04-15T06:04:28.000Z,80.11
2023-04-15T06:05:29.000Z,80.12
2023-04-15T06:06:29.000Z,80.74
2023-04-15T06:07:29.000Z,81.26
2023-04-15T06:08:29.000Z,80.73
2023-04-15T06:09:29.000Z,80.44
2023-04-15T06:10:29.000Z,80.10
2023-04-15T06:11:29.000Z,80.05
2023-04-15T06:12:29.000Z,79.92
2023-04-15T06:13:29.000Z,79.73
2023-04-15T06:14:28.000Z,79.64
2023-04-15T06:15:29.000Z,79.81
2023-04-15T06:16:28.000Z,79.97
2023-04-15T06:17:28.000Z,80.24
2023-04-15T06:18:28.000Z,80.35
2023-04-15T06:19:29.000Z,80.19
2023-04-15T06:20:29.000Z,81.36
2023-04-15T06:21:30.000Z,80.62
2023-04-15T06:22:29.000Z,80.90
2023-04-15T06:23:29.000Z,80.76
2023-04-15T06:24:29.000Z,79.77
2023-04-15T06:25:29.000Z,80.18
2023-04-15T06:26:29.000Z,80.18
2023-04-15T06:27:29.000Z,80.27
2023-04-15T06:28:29.000Z,79.86
2023-04-15T06:29:29.000Z,79.17
2023-04-15T06:30:29.000Z,79.37
2023-04-15T06:31:29.000Z,79.23
2023-04-15T06:32:28.000Z,79.60
2023-04-15T06:33:30.000Z,79.74
2023-04-15T06:34:29.000Z,78.69
2023-04-15T06:35:28.000Z,79.97
2023-04-15T06:36:29.000Z,79.81
2023-04-15T06:37:29.000Z,80.21
2023-04-15T06:38:28.000Z,80.06
2023-04-15T06:39:28.000Z,79.04
2023-04-15T06:40:29.000Z,78.91
2023-04-15T06:41:28.000Z,78.26
2023-04-15T06:42:29.000Z,77.80
2023-04-15T06:43:29.000Z,77.37
2023-04-15T06:44:29.000Z,78.17
2023-04-15T06:45:29.000Z,78.55
2023-04-15T06:46:28.000Z,77.88
2023-04-15T06:47:28.000Z,77.81
2023-04-15T06:48:28.000Z,78.63
2023-04-15T06:49:28.000Z,78.42
2023-04-15T06:50:29.000Z,78.50
2023-04-15T06:51:28.000Z,78.67
2023-04-15T06:52:29.000Z,79.31
2023-04-15T06:53:28.000Z,79.30
2023-04-15T06:54:28.000Z,78.90
2023-04-15T06:55:30.000Z,79.08
2023-04-15T06:56:28.000Z,78.46
2023-04-15T06:57:28.000Z,78.29
2023-04-15T06:58:28.000Z,78.20
2023-04-15T06:59:28.000Z,78.36
2023-04-15T07:00:29.000Z,78.52
2023-04-15T07:01:29.000Z,78.22
2023-04-15T07:02:28.000Z,77.47
2023-04-15T07:03:29.000Z,78.10
2023-04-15T07:04:28.000Z,78.53
2023-04-15T07:05:29.000Z,78.42
2023-04-15T07:06:28.000Z,78.52
2023-04-15T07:07:28.000Z,78.67
2023-04-15T07:08:29.000Z,78.89
2023-04-15T07:09:28.000Z,78.65
2023-04-15T07:10:29.000Z,78.50
2023-04-15T07:11:28.000Z,78.58
2023-04-15T07:12:28.000Z,78.46
2023-04-15T07:13:30.000Z,78.35
2023-04-15T07:14:28.000Z,77.51
2023-04-15T07:15:28.000Z,77.66
2023-04-15T07:16:28.000Z,77.27
2023-04-15T07:17:28.000Z,76.84
2023-04-15T07:18:28.000Z,76.89
2023-04-15T07:19:28.000Z,78.03
2023-04-15T07:20:29.000Z,77.78
2023-04-15T07:21:28.000Z,77.78
2023-04-15T07:22:28.000Z,77.99
2023-04-15T07:23:28.000Z,78.24
2023-04-15T07:24:28.000Z,77.75
2023-04-15T07:25:28.000Z,77.63
2023-04-15T07:26:28.000Z,77.96
2023-04-15T07:27:29.000Z,77.89
2023-04-15T07:28:29.000Z,77.55
2023-04-15T07:29:28.000Z,77.47
2023-04-15T07:30:28.000Z,77.11
2023-04-15T07:31:28.000Z,77.34
2023-04-15T07:32:28.000Z,77.18
2023-04-15T07:33:28.000Z,76.72
2023-04-15T07:34:28.000Z,77.37
2023-04-15T07:35:28.000Z,77.28
2023-04-15T07:36:28.000Z,77.16
2023-04-15T07:37:28.000Z,76.33
2023-04-15T07:38:28.000Z,76.73
2023-04-15T07:39:29.000Z,76.56
2023-04-15T07:40:29.000Z,76.75
2023-04-15T07:41:30.000Z,76.47
2023-04-15T07:42:29.000Z,76.16
2023-04-15T07:43:29.000Z,76.49
2023-04-15T07:44:29.000Z,76.18
2023-04-15T07:45:29.000Z,76.42
2023-04-15T07:46:29.000Z,76.03
2023-04-15T07:47:29.000Z,76.18
2023-04-15T07:48:29.000Z,76.01
2023-04-15T07:49:29.000Z,76.18
2023-04-15T07:50:29.000Z,76.19
2023-04-15T07:51:29.000Z,75.57
2023-04-15T07:52:29.000Z,75.87
2023-04-15T07:53:29.000Z,75.97
2023-04-15T07:54:29.000Z,75.50
2023-04-15T07:55:29.000Z,75.25
2023-04-15T07:56:29.000Z,75.07
2023-04-15T07:57:29.000Z,74.71
2023-04-15T07:58:29.000Z,74.64
2023-04-15T07:59:29.000Z,74.73
2023-04-15T08:00:29.000Z,74.59
2023-04-15T08:01:29.000Z,74.68
2023-04-15T08:02:29.000Z,74.27
2023-04-15T08:03:29.000Z,74.28
2023-04-15T08:04:30.000Z,74.15
2023-04-15T08:05:29.000Z,73.98
2023-04-15T08:06:29.000Z,74.08
2023-04-15T08:07:29.000Z,74.31
2023-04-15T08:08:29.000Z,74.14
2023-04-15T08:09:29.000Z,74.28
2023-04-15T08:10:29.000Z,74.13
2023-04-15T08:11:29.000Z,74.35
2023-04-15T08:12:28.000Z,74.23
2023-04-15T08:13:28.000Z,73.58
2023-04-15T08:14:28.000Z,73.89
2023-04-15T08:15:29.000Z,73.47
2023-04-15T08:16:28.000Z,72.83
2023-04-15T08:17:28.000Z,73.68
2023-04-15T08:18:28.000Z,74.71
2023-04-15T08:19:28.000Z,75.00
2023-04-15T08:20:28.000Z,74.56
2023-04-15T08:21:29.000Z,73.98
2023-04-15T08:22:28.000Z,73.95
2023-04-15T08:23:28.000Z,73.49
2023-04-15T08:24:29.000Z,73.71
2023-04-15T08:25:28.000Z,73.25
2023-04-15T08:26:28.000Z,73.44
2023-04-15T08:27:28.000Z,73.42
2023-04-15T08:28:29.000Z,73.42
2023-04-15T08:29:28.000Z,73.16
2023-04-15T08:30:28.000Z,73.14
2023-04-15T08:31:30.000Z,72.75
2023-04-15T08:32:29.000Z,70.99
2023-04-15T08:33:28.000Z,69.07
2023-04-15T08:34:29.000Z,65.26
2023-04-15T08:35:28.000Z,66.58
2023-04-15T08:36:29.000Z,67.46
2023-04-15T08:37:28.000Z,70.71
2023-04-15T08:38:28.000Z,70.24
2023-04-15T08:39:28.000Z,70.05
2023-04-15T08:40:38.000Z,70.21
2023-04-15T08:41:38.000Z,70.59
2023-04-15T08:42:36.000Z,66.94
2023-04-15T08:43:33.000Z,62.17
2023-04-15T08:44:32.000Z,62.31
2023-04-15T08:45:29.000Z,62.99
2023-04-15T08:46:30.000Z,62.06
2023-04-15T08:47:29.000Z,61.91
2023-04-15T08:48:31.000Z,61.56
2023-04-15T08:49:30.000Z,61.56
2023-04-15T08:50:30.000Z,61.83
2023-04-15T08:51:28.000Z,62.43
2023-04-15T08:52:29.000Z,61.92
2023-04-15T08:53:29.000Z,61.68
2023-04-15T08:54:28.000Z,61.34
2023-04-15T08:55:32.000Z,62.11
2023-04-15T08:56:30.000Z,61.18
2023-04-15T08:57:29.000Z,61.50
2023-04-15T08:58:29.000Z,60.61
2023-04-15T08:59:29.000Z,61.26
2023-04-15T09:00:29.000Z,60.43
2023-04-15T09:01:30.000Z,59.92
2023-04-15T09:02:29.000Z,60.99
2023-04-15T09:03:28.000Z,60.72
2023-04-15T09:04:29.000Z,60.28
2023-04-15T09:05:31.000Z,60.34
2023-04-15T09:06:28.000Z,59.93
2023-04-15T09:07:28.000Z,59.76
2023-04-15T09:08:28.000Z,59.80
2023-04-15T09:09:28.000Z,60.38
2023-04-15T09:10:30.000Z,60.43
2023-04-15T09:11:29.000Z,60.17
2023-04-15T09:12:28.000Z,59.92
2023-04-15T09:13:29.000Z,60.47
2023-04-15T09:14:31.000Z,61.08
2023-04-15T09:15:31.000Z,60.21
2023-04-15T09:16:29.000Z,60.63
2023-04-15T09:17:31.000Z,60.56
2023-04-15T09:18:32.000Z,59.86
2023-04-15T09:19:30.000Z,60.25
2023-04-15T09:20:28.000Z,60.03
2023-04-15T09:21:30.000Z,59.12
2023-04-15T09:22:31.000Z,59.46
2023-04-15T09:23:31.000Z,57.85
2023-04-15T09:24:34.000Z,57.34
2023-04-15T09:25:29.000Z,56.58
2023-04-15T09:26:37.000Z,56.92
2023-04-15T09:27:29.000Z,57.22
2023-04-15T09:28:29.000Z,57.99
2023-04-15T09:29:29.000Z,57.23
2023-04-15T09:30:29.000Z,57.51
2023-04-15T09:31:29.000Z,57.87
2023-04-15T09:32:29.000Z,58.20
2023-04-15T09:33:28.000Z,57.42
2023-04-15T09:34:34.000Z,56.99
2023-04-15T09:35:28.000Z,57.15
2023-04-15T09:36:40.000Z,56.21
2023-04-15T09:37:34.000Z,56.38
2023-04-15T09:38:30.000Z,56.07
2023-04-15T09:39:38.000Z,56.20
2023-04-15T09:40:37.000Z,56.59
2023-04-15T09:41:28.000Z,56.48
2023-04-15T09:42:28.000Z,56.70
2023-04-15T09:43:37.000Z,56.57
2023-04-15T09:44:29.000Z,56.96
2023-04-15T09:45:30.000Z,56.61
2023-04-15T09:46:39.000Z,56.15
2023-04-15T09:47:30.000Z,53.62
2023-04-15T09:48:30.000Z,54.88
2023-04-15T09:49:29.000Z,54.66
2023-04-15T09:50:29.000Z,55.24
2023-04-15T09:51:33.000Z,55.22
2023-04-15T09:52:29.000Z,55.27
2023-04-15T09:53:32.000Z,54.83
2023-04-15T09:54:37.000Z,54.56
2023-04-15T09:55:31.000Z,54.57
2023-04-15T09:56:34.000Z,54.04
2023-04-15T09:57:34.000Z,54.13
2023-04-15T09:58:31.000Z,54.51
2023-04-15T09:59:29.000Z,54.73
2023-04-15T10:00:30.000Z,55.15
2023-04-15T10:01:29.000Z,53.38
2023-04-15T10:02:29.000Z,53.73
2023-04-15T10:03:33.000Z,54.09
2023-04-15T10:04:29.000Z,54.55
2023-04-15T10:05:30.000Z,54.06
2023-04-15T10:06:29.000Z,53.57
2023-04-15T10:07:29.000Z,53.98
2023-04-15T10:08:30.000Z,54.69
2023-04-15T10:09:29.000Z,53.03
2023-04-15T10:10:29.000Z,53.30
2023-04-15T10:11:30.000Z,53.20
2023-04-15T10:12:29.000Z,53.38
2023-04-15T10:13:30.000Z,53.05
2023-04-15T10:14:32.000Z,52.63
2023-04-15T10:15:30.000Z,52.58
2023-04-15T10:16:31.000Z,52.28
2023-04-15T10:17:33.000Z,52.25
2023-04-15T10:18:33.000Z,52.74
2023-04-15T10:19:33.000Z,51.55
2023-04-15T10:20:29.000Z,52.41
2023-04-15T10:21:29.000Z,53.13
2023-04-15T10:22:30.000Z,51.98
2023-04-15T10:23:29.000Z,52.57
2023-04-15T10:24:30.000Z,52.70
2023-04-15T10:25:29.000Z,52.45
2023-04-15T10:26:29.000Z,52.34
2023-04-15T10:27:29.000Z,52.58
2023-04-15T10:28:29.000Z,52.81
2023-04-15T10:29:29.000Z,53.33
2023-04-15T10:30:31.000Z,51.14
2023-04-15T10:31:31.000Z,51.21
2023-04-15T10:32:29.000Z,51.56
2023-04-15T10:33:29.000Z,51.94
2023-04-15T10:34:30.000Z,52.07
2023-04-15T10:35:31.000Z,52.33
2023-04-15T10:36:29.000Z,51.86
2023-04-15T10:37:37.000Z,52.19
2023-04-15T10:38:34.000Z,52.11
2023-04-15T10:39:46.000Z,53.05
2023-04-15T10:40:31.000Z,52.61
2023-04-15T10:41:30.000Z,52.47
2023-04-15T10:42:34.000Z,52.22
2023-04-15T10:43:28.000Z,51.92
2023-04-15T10:44:28.000Z,52.15
2023-04-15T10:45:35.000Z,52.17
2023-04-15T10:46:38.000Z,53.13
2023-04-15T10:47:30.000Z,52.88
2023-04-15T10:48:29.000Z,53.00
2023-04-15T10:49:28.000Z,52.94
2023-04-15T10:50:32.000Z,52.87
2023-04-15T10:51:30.000Z,52.90
2023-04-15T10:52:28.000Z,53.24
2023-04-15T10:53:30.000Z,53.62
2023-04-15T10:54:31.000Z,53.07
2023-04-15T10:55:32.000Z,53.43
2023-04-15T10:56:29.000Z,53.42
2023-04-15T10:57:36.000Z,52.85
2023-04-15T10:58:40.000Z,51.71
2023-04-15T10:59:35.000Z,51.33
2023-04-15T11:00:30.000Z,52.00
2023-04-15T11:01:39.000Z,52.07
2023-04-15T11:02:40.000Z,51.46
2023-04-15T11:03:35.000Z,51.79
2023-04-15T11:04:39.000Z,51.74
2023-04-15T11:05:39.000Z,52.19
2023-04-15T11:06:43.000Z,51.88
2023-04-15T11:07:37.000Z,51.84
2023-04-15T11:08:39.000Z,51.79
2023-04-15T11:09:31.000Z,51.99
2023-04-15T11:10:59.000Z,52.19
2023-04-15T11:11:48.000Z,52.09
2023-04-15T11:12:34.000Z,51.64
2023-04-15T11:13:31.000Z,51.33
2023-04-15T11:14:28.000Z,52.09
2023-04-15T11:15:33.000Z,51.15
2023-04-15T11:16:28.000Z,51.53
2023-04-15T11:17:29.000Z,50.91
2023-04-15T11:18:31.000Z,50.79
2023-04-15T11:19:34.000Z,49.80
2023-04-15T11:20:30.000Z,47.74
2023-04-15T11:21:29.000Z,48.07
2023-04-15T11:22:28.000Z,47.49
2023-04-15T11:23:37.000Z,46.95
2023-04-15T11:24:28.000Z,45.92
2023-04-15T11:25:31.000Z,46.18
2023-04-15T11:26:28.000Z,46.48
2023-04-15T11:27:29.000Z,46.42
2023-04-15T11:28:30.000Z,46.71
2023-04-15T11:29:30.000Z,45.39
2023-04-15T11:30:30.000Z,43.68
2023-04-15T11:31:28.000Z,44.15
2023-04-15T11:32:29.000Z,43.00
2023-04-15T11:33:28.000Z,43.72
2023-04-15T11:34:30.000Z,42.92
2023-04-15T11:35:29.000Z,42.94
2023-04-15T11:36:29.000Z,42.92
2023-04-15T11:37:30.000Z,43.45
2023-04-15T11:38:28.000Z,42.93
2023-04-15T11:39:28.000Z,42.82
2023-04-15T11:40:29.000Z,42.74
2023-04-15T11:41:29.000Z,43.09
2023-04-15T11:42:28.000Z,42.89
2023-04-15T11:43:30.000Z,43.21
2023-04-15T11:44:29.000Z,42.38
2023-04-15T11:45:29.000Z,41.11
2023-04-15T11:46:30.000Z,40.69
2023-04-15T11:47:29.000Z,40.45
2023-04-15T11:48:33.000Z,40.47
2023-04-15T11:49:30.000Z,41.29
2023-04-15T11:50:29.000Z,40.88
2023-04-15T11:51:34.000Z,41.53
2023-04-15T11:52:29.000Z,41.93
2023-04-15T11:53:39.000Z,42.63
2023-04-15T11:54:29.000Z,42.81
2023-04-15T11:55:29.000Z,43.23
2023-04-15T11:56:29.000Z,43.46
2023-04-15T11:57:33.000Z,43.56
2023-04-15T11:58:29.000Z,43.62
2023-04-15T11:59:41.000Z,43.44
2023-04-15T12:00:29.000Z,44.37
2023-04-15T12:01:36.000Z,43.00
2023-04-15T12:02:35.000Z,43.57
2023-04-15T12:03:39.000Z,43.84
2023-04-15T12:04:29.000Z,43.14
2023-04-15T12:05:28.000Z,43.52
2023-04-15T12:06:32.000Z,43.19
2023-04-15T12:07:29.000Z,43.34
2023-04-15T12:08:39.000Z,44.02
2023-04-15T12:09:28.000Z,44.02
2023-04-15T12:10:30.000Z,44.08
2023-04-15T12:11:36.000Z,43.96
2023-04-15T12:12:29.000Z,43.88
2023-04-15T12:13:29.000Z,43.43
2023-04-15T12:14:31.000Z,42.75
2023-04-15T12:15:28.000Z,43.52
2023-04-15T12:16:28.000Z,43.65
2023-04-15T12:17:28.000Z,43.83
2023-04-15T12:18:28.000Z,43.42
2023-04-15T12:19:34.000Z,43.83
2023-04-15T12:20:28.000Z,44.13
2023-04-15T12:21:33.000Z,44.44
2023-04-15T12:22:28.000Z,43.63
2023-04-15T12:23:28.000Z,43.97
2023-04-15T12:24:33.000Z,44.50
2023-04-15T12:25:33.000Z,45.29
2023-04-15T12:26:35.000Z,44.64
2023-04-15T12:27:29.000Z,44.51
2023-04-15T12:28:28.000Z,44.79
2023-04-15T12:29:28.000Z,44.71
2023-04-15T12:30:28.000Z,44.69
2023-04-15T12:31:28.000Z,44.52
2023-04-15T12:32:31.000Z,43.85
2023-04-15T12:33:32.000Z,44.33
2023-04-15T12:34:34.000Z,43.72
2023-04-15T12:35:28.000Z,43.90
2023-04-15T12:36:30.000Z,44.17
2023-04-15T12:37:28.000Z,44.28
2023-04-15T12:38:28.000Z,44.96
2023-04-15T12:39:30.000Z,44.48
2023-04-15T12:40:28.000Z,45.01
2023-04-15T12:41:28.000Z,45.22
2023-04-15T12:42:28.000Z,45.54
2023-04-15T12:43:28.000Z,45.74
2023-04-15T12:44:28.000Z,46.14
2023-04-15T12:45:28.000Z,45.55
2023-04-15T12:46:29.000Z,45.64
2023-04-15T12:47:29.000Z,45.99
2023-04-15T12:48:29.000Z,46.13
2023-04-15T12:49:30.000Z,46.22
2023-04-15T12:50:28.000Z,45.73
2023-04-15T12:51:28.000Z,45.75
2023-04-15T12:52:29.000Z,45.84